createdAt,value
2023-05-14T00:00:51.781Z,64.82
2023-05-14T00:01:51.848Z,65.01
2023-05-14T00:02:51.905Z,64.82
2023-05-14T00:03:51.820Z,64.82
2023-05-14T00:04:51.776Z,64.92
2023-05-14T00:05:51.769Z,64.82
2023-05-14T00:06:51.786Z,64.92
2023-05-14T00:07:51.765Z,65.01
2023-05-14T00:08:51.762Z,64.82
2023-05-14T00:09:51.772Z,64.82
2023-05-14T00:10:51.772Z,64.92
2023-05-14T00:11:51.750Z,64.73
2023-05-14T00:12:51.787Z,64.82
2023-05-14T00:13:51.761Z,64.92
2023-05-14T00:14:51.748Z,64.73
2023-05-14T00:15:51.797Z,64.92
2023-05-14T00:16:51.759Z,64.73
2023-05-14T00:17:51.778Z,64.73
2023-05-14T00:18:51.796Z,65.11
2023-05-14T00:19:51.758Z,64.92
2023-05-14T00:20:51.758Z,64.73
2023-05-14T00:21:51.734Z,65.20
2023-05-14T00:22:51.735Z,64.73
2023-05-14T00:23:51.754Z,65.20
2023-05-14T00:24:51.754Z,65.30
2023-05-14T00:25:51.763Z,65.20
2023-05-14T00:26:51.751Z,65.30
2023-05-14T00:27:51.724Z,65.30
2023-05-14T00:28:51.736Z,65.20
2023-05-14T00:29:51.741Z,65.11
2023-05-14T00:30:51.747Z,65.20
2023-05-14T00:31:51.764Z,65.20
2023-05-14T00:32:51.753Z,65.20
2023-05-14T00:33:51.718Z,65.01
2023-05-14T00:34:51.716Z,65.01
2023-05-14T00:35:51.724Z,65.20
2023-05-14T00:36:51.744Z,65.11
2023-05-14T00:37:51.719Z,65.11
2023-05-14T00:38:51.724Z,65.11
2023-05-14T00:39:51.734Z,65.20
2023-05-14T00:40:51.746Z,65.30
2023-05-14T00:41:51.723Z,65.20
2023-05-14T00:42:51.752Z,65.11
2023-05-14T00:43:51.721Z,65.20
2023-05-14T00:44:51.739Z,65.01
2023-05-14T00:45:51.755Z,65.20
2023-05-14T00:46:51.742Z,65.11
2023-05-14T00:47:51.744Z,65.11
2023-05-14T00:48:51.704Z,65.11
2023-05-14T00:49:51.730Z,64.92
2023-05-14T00:50:51.713Z,64.92
2023-05-14T00:51:51.714Z,65.01
2023-05-14T00:52:51.688Z,64.92
2023-05-14T00:53:51.682Z,65.01
2023-05-14T00:54:51.702Z,65.11
2023-05-14T00:55:51.697Z,64.73
2023-05-14T00:56:51.716Z,64.73
2023-05-14T00:57:51.692Z,65.01
2023-05-14T00:58:51.704Z,64.73
2023-05-14T00:59:51.676Z,64.92
2023-05-14T01:00:51.767Z,64.82
2023-05-14T01:01:51.664Z,64.92
2023-05-14T01:02:51.721Z,65.59
2023-05-14T01:03:51.829Z,65.01
2023-05-14T01:04:51.673Z,65.40
2023-05-14T01:05:51.684Z,65.59
2023-05-14T01:06:51.684Z,65.01
2023-05-14T01:07:51.669Z,65.40
2023-05-14T01:08:51.677Z,65.40
2023-05-14T01:09:51.670Z,65.20
2023-05-14T01:10:51.658Z,64.82
2023-05-14T01:11:51.663Z,65.20
2023-05-14T01:12:51.664Z,65.40
2023-05-14T01:13:51.674Z,65.20
2023-05-14T01:14:51.676Z,65.40
2023-05-14T01:15:51.669Z,65.50
2023-05-14T01:16:51.758Z,64.82
2023-05-14T01:17:51.680Z,65.11
2023-05-14T01:18:51.681Z,65.20
2023-05-14T01:19:51.651Z,64.73
2023-05-14T01:20:51.651Z,65.11
2023-05-14T01:21:51.632Z,65.11
2023-05-14T01:22:51.650Z,65.11
2023-05-14T01:23:51.645Z,64.82
2023-05-14T01:24:51.649Z,64.73
2023-05-14T01:25:51.636Z,65.11
2023-05-14T01:26:51.655Z,65.11
2023-05-14T01:27:51.646Z,65.01
2023-05-14T01:28:51.653Z,64.92
2023-05-14T01:29:51.629Z,65.01
2023-05-14T01:30:51.654Z,65.88
2023-05-14T01:31:51.731Z,65.20
2023-05-14T01:32:51.716Z,65.59
2023-05-14T01:33:51.622Z,64.82
2023-05-14T01:34:51.619Z,64.92
2023-05-14T01:35:51.624Z,65.11
2023-05-14T01:36:51.639Z,64.73
2023-05-14T01:37:51.615Z,65.11
2023-05-14T01:38:51.616Z,65.11
2023-05-14T01:39:51.608Z,64.82
2023-05-14T01:40:51.640Z,65.30
2023-05-14T01:41:51.607Z,64.82
2023-05-14T01:42:51.627Z,65.88
2023-05-14T01:43:51.609Z,64.82
2023-05-14T01:44:51.591Z,65.01
2023-05-14T01:45:51.665Z,65.30
2023-05-14T01:46:51.638Z,64.82
2023-05-14T01:47:51.650Z,64.92
2023-05-14T01:48:51.603Z,64.82
2023-05-14T01:49:51.588Z,64.82
2023-05-14T01:50:51.586Z,65.11
2023-05-14T01:51:51.597Z,65.01
2023-05-14T01:52:51.587Z,65.01
2023-05-14T01:53:51.584Z,65.40
2023-05-14T01:54:51.597Z,65.50
2023-05-14T01:55:51.590Z,65.40
2023-05-14T01:56:51.567Z,65.40
2023-05-14T01:57:51.578Z,65.50
2023-05-14T01:58:51.583Z,65.50
2023-05-14T01:59:51.561Z,65.50
2023-05-14T02:00:51.595Z,65.40
2023-05-14T02:01:51.613Z,65.40
2023-05-14T02:02:51.600Z,65.30
2023-05-14T02:03:51.598Z,65.59
2023-05-14T02:04:51.562Z,65.50
2023-05-14T02:05:51.567Z,65.50
2023-05-14T02:06:51.582Z,65.30
2023-05-14T02:07:51.549Z,65.59
2023-05-14T02:08:51.567Z,65.50
2023-05-14T02:09:51.561Z,65.50
2023-05-14T02:10:51.550Z,65.30
2023-05-14T02:11:51.555Z,65.40
2023-05-14T02:12:51.548Z,65.46
2023-05-14T02:13:51.578Z,65.46
2023-05-14T02:14:51.557Z,65.30
2023-05-14T02:15:51.568Z,65.40
2023-05-14T02:16:51.544Z,65.37
2023-05-14T02:17:51.625Z,65.50
2023-05-14T02:18:51.616Z,65.40
2023-05-14T02:19:51.554Z,65.50
2023-05-14T02:20:51.543Z,65.50
2023-05-14T02:21:51.530Z,65.30
2023-05-14T02:22:51.556Z,65.78
2023-05-14T02:23:51.543Z,65.46
2023-05-14T02:24:51.598Z,65.30
2023-05-14T02:25:51.514Z,65.46
2023-05-14T02:26:51.550Z,65.37
2023-05-14T02:27:51.525Z,65.56
2023-05-14T02:28:51.522Z,65.46
2023-05-14T02:29:51.517Z,65.46
2023-05-14T02:30:51.540Z,65.46
2023-05-14T02:31:51.676Z,65.27
2023-05-14T02:32:51.634Z,65.27
2023-05-14T02:33:51.501Z,65.27
2023-05-14T02:34:51.532Z,65.56
2023-05-14T02:35:51.509Z,65.27
2023-05-14T02:36:51.556Z,65.46
2023-05-14T02:37:51.510Z,65.37
2023-05-14T02:38:51.503Z,65.46
2023-05-14T02:39:51.497Z,65.17
2023-05-14T02:40:51.545Z,65.37
2023-05-14T02:41:51.521Z,65.17
2023-05-14T02:42:51.498Z,65.27
2023-05-14T02:43:51.491Z,65.17
2023-05-14T02:44:51.515Z,65.17
2023-05-14T02:45:51.482Z,65.27
2023-05-14T02:46:51.572Z,65.27
2023-05-14T02:47:51.588Z,65.27
2023-05-14T02:48:51.500Z,65.46
2023-05-14T02:49:51.475Z,65.46
2023-05-14T02:50:51.505Z,65.46
2023-05-14T02:51:51.484Z,65.46
2023-05-14T02:52:51.487Z,65.17
2023-05-14T02:53:51.485Z,65.27
2023-05-14T02:54:51.478Z,65.08
2023-05-14T02:55:51.493Z,65.27
2023-05-14T02:56:51.477Z,65.27
2023-05-14T02:57:51.471Z,65.27
2023-05-14T02:58:51.486Z,65.17
2023-05-14T02:59:51.478Z,65.37
2023-05-14T03:00:51.530Z,65.27
2023-05-14T03:01:51.485Z,65.56
2023-05-14T03:02:51.536Z,65.56
2023-05-14T03:03:51.453Z,65.46
2023-05-14T03:04:51.472Z,65.56
2023-05-14T03:05:51.450Z,65.66
2023-05-14T03:06:51.486Z,65.85
2023-05-14T03:07:51.460Z,65.66
2023-05-14T03:08:51.466Z,65.56
2023-05-14T03:09:51.462Z,65.66
2023-05-14T03:10:51.465Z,66.04
2023-05-14T03:11:51.456Z,65.94
2023-05-14T03:12:51.438Z,65.37
2023-05-14T03:13:51.457Z,65.75
2023-05-14T03:14:51.442Z,65.75
2023-05-14T03:15:51.447Z,65.85
2023-05-14T03:16:51.568Z,65.75
2023-05-14T03:17:51.504Z,65.66
2023-05-14T03:18:51.496Z,65.75
2023-05-14T03:19:51.441Z,65.85
2023-05-14T03:20:51.440Z,65.85
2023-05-14T03:21:51.424Z,65.75
2023-05-14T03:22:51.443Z,65.85
2023-05-14T03:23:51.420Z,65.85
2023-05-14T03:24:51.426Z,65.85
2023-05-14T03:25:51.428Z,66.24
2023-05-14T03:26:51.441Z,65.75
2023-05-14T03:27:51.434Z,65.85
2023-05-14T03:28:51.418Z,66.24
2023-05-14T03:29:51.412Z,66.24
2023-05-14T03:30:51.481Z,66.04
2023-05-14T03:31:51.401Z,66.24
2023-05-14T03:32:51.437Z,66.24
2023-05-14T03:33:51.390Z,65.94
2023-05-14T03:34:51.403Z,65.94
2023-05-14T03:35:51.414Z,65.85
2023-05-14T03:36:51.394Z,65.85
2023-05-14T03:37:51.385Z,65.94
2023-05-14T03:38:51.427Z,65.85
2023-05-14T03:39:51.407Z,65.85
2023-05-14T03:40:51.383Z,66.04
2023-05-14T03:41:51.414Z,65.94
2023-05-14T03:42:51.380Z,65.94
2023-05-14T03:43:51.395Z,66.04
2023-05-14T03:44:51.438Z,65.94
2023-05-14T03:45:51.398Z,65.94
2023-05-14T03:46:51.408Z,66.04
2023-05-14T03:47:51.523Z,65.94
2023-05-14T03:48:51.428Z,66.04
2023-05-14T03:49:51.424Z,65.75
2023-05-14T03:50:51.383Z,65.94
2023-05-14T03:51:51.389Z,66.04
2023-05-14T03:52:51.376Z,66.24
2023-05-14T03:53:51.368Z,66.24
2023-05-14T03:54:51.402Z,66.24
2023-05-14T03:55:51.380Z,65.94
2023-05-14T03:56:51.361Z,66.14
2023-05-14T03:57:51.378Z,65.94
2023-05-14T03:58:51.387Z,65.66
2023-05-14T03:59:51.375Z,65.94
2023-05-14T04:00:51.388Z,66.04
2023-05-14T04:01:51.377Z,66.33
2023-05-14T04:02:51.434Z,66.04
2023-05-14T04:03:51.553Z,66.04
2023-05-14T04:04:51.491Z,65.75
2023-05-14T04:05:51.339Z,66.14
2023-05-14T04:06:51.371Z,66.04
2023-05-14T04:07:51.373Z,66.14
2023-05-14T04:08:51.376Z,66.33
2023-05-14T04:09:51.371Z,66.33
2023-05-14T04:10:51.411Z,66.24
2023-05-14T04:11:51.377Z,66.14
2023-05-14T04:12:51.349Z,66.24
2023-05-14T04:13:51.351Z,66.14
2023-05-14T04:14:51.343Z,66.14
2023-05-14T04:15:51.367Z,66.14
2023-05-14T04:16:51.398Z,66.04
2023-05-14T04:17:51.344Z,66.04
2023-05-14T04:18:51.363Z,66.14
2023-05-14T04:19:51.372Z,66.14
2023-05-14T04:20:51.391Z,66.14
2023-05-14T04:21:51.309Z,66.14
2023-05-14T04:22:51.327Z,66.14
2023-05-14T04:23:51.303Z,66.14
2023-05-14T04:24:51.302Z,66.24
2023-05-14T04:25:51.318Z,66.24
2023-05-14T04:26:51.368Z,66.24
2023-05-14T04:27:51.321Z,66.24
2023-05-14T04:28:51.299Z,66.24
2023-05-14T04:29:51.306Z,66.04
2023-05-14T04:30:51.299Z,66.14
2023-05-14T04:31:51.361Z,65.94
2023-05-14T04:32:51.333Z,65.85
2023-05-14T04:33:51.292Z,66.14
2023-05-14T04:34:51.277Z,65.85
2023-05-14T04:35:51.301Z,65.85
2023-05-14T04:36:51.286Z,66.04
2023-05-14T04:37:51.288Z,65.94
2023-05-14T04:38:51.288Z,65.94
2023-05-14T04:39:51.296Z,66.04
2023-05-14T04:40:51.265Z,66.14
2023-05-14T04:41:51.278Z,65.94
2023-05-14T04:42:51.281Z,66.04
2023-05-14T04:43:51.287Z,66.04
2023-05-14T04:44:51.277Z,66.04
2023-05-14T04:45:51.271Z,66.14
2023-05-14T04:46:51.271Z,66.14
2023-05-14T04:47:51.372Z,66.14
2023-05-14T04:48:51.260Z,66.14
2023-05-14T04:49:51.273Z,66.04
2023-05-14T04:50:51.265Z,66.14
2023-05-14T04:51:51.257Z,66.24
2023-05-14T04:52:51.240Z,66.24
2023-05-14T04:53:51.251Z,66.14
2023-05-14T04:54:51.302Z,66.04
2023-05-14T04:55:51.243Z,66.14
2023-05-14T04:56:51.247Z,66.04
2023-05-14T04:57:51.247Z,66.14
2023-05-14T04:58:51.251Z,66.14
2023-05-14T04:59:51.227Z,66.14
2023-05-14T05:00:51.258Z,66.04
2023-05-14T05:01:51.259Z,66.14
2023-05-14T05:02:51.260Z,66.04
2023-05-14T05:03:51.281Z,66.14
2023-05-14T05:04:51.221Z,66.04
2023-05-14T05:05:51.231Z,66.04
2023-05-14T05:06:51.227Z,66.14
2023-05-14T05:07:51.233Z,65.85
2023-05-14T05:08:51.209Z,65.85
2023-05-14T05:09:51.221Z,65.94
2023-05-14T05:10:51.231Z,66.24
2023-05-14T05:11:51.230Z,66.14
2023-05-14T05:12:51.217Z,66.14
2023-05-14T05:13:51.223Z,66.24
2023-05-14T05:14:51.225Z,66.24
2023-05-14T05:15:51.238Z,66.04
2023-05-14T05:16:51.206Z,66.24
2023-05-14T05:17:51.245Z,66.24
2023-05-14T05:18:51.233Z,65.85
2023-05-14T05:19:51.236Z,65.75
2023-05-14T05:20:51.206Z,65.75
2023-05-14T05:21:51.192Z,66.04
2023-05-14T05:22:51.206Z,66.04
2023-05-14T05:23:51.199Z,65.85
2023-05-14T05:24:51.199Z,66.24
2023-05-14T05:25:51.200Z,66.33
2023-05-14T05:26:51.195Z,65.94
2023-05-14T05:27:51.194Z,65.75
2023-05-14T05:28:51.185Z,65.85
2023-05-14T05:29:51.202Z,65.75
2023-05-14T05:30:51.217Z,65.56
2023-05-14T05:31:51.278Z,65.75
2023-05-14T05:32:51.236Z,65.56
2023-05-14T05:33:51.185Z,65.46
2023-05-14T05:34:51.190Z,65.46
2023-05-14T05:35:51.197Z,65.08
2023-05-14T05:36:51.175Z,65.08
2023-05-14T05:37:51.202Z,65.17
2023-05-14T05:38:51.159Z,65.46
2023-05-14T05:39:51.168Z,65.27
2023-05-14T05:40:51.162Z,65.46
2023-05-14T05:41:51.176Z,65.37
2023-05-14T05:42:51.160Z,65.37
2023-05-14T05:43:51.171Z,65.56
2023-05-14T05:44:51.172Z,65.37
2023-05-14T05:45:51.154Z,65.27
2023-05-14T05:46:51.307Z,65.17
2023-05-14T05:47:51.219Z,65.40
2023-05-14T05:48:51.156Z,65.37
2023-05-14T05:49:51.148Z,65.59
2023-05-14T05:50:51.151Z,65.50
2023-05-14T05:51:51.155Z,65.40
2023-05-14T05:52:51.159Z,64.92
2023-05-14T05:53:51.152Z,64.82
2023-05-14T05:54:51.154Z,65.30
2023-05-14T05:55:51.141Z,65.69
2023-05-14T05:56:51.140Z,65.01
2023-05-14T05:57:51.148Z,65.30
2023-05-14T05:58:51.134Z,65.20
2023-05-14T05:59:51.159Z,65.01
2023-05-14T06:00:51.130Z,65.30
2023-05-14T06:01:51.176Z,65.20
2023-05-14T06:02:51.221Z,65.20
2023-05-14T06:03:51.129Z,64.92
2023-05-14T06:04:51.161Z,65.50
2023-05-14T06:05:51.143Z,65.01
2023-05-14T06:06:51.133Z,64.92
2023-05-14T06:07:51.151Z,65.01
2023-05-14T06:08:51.134Z,65.11
2023-05-14T06:09:51.124Z,64.92
2023-05-14T06:10:51.133Z,65.11
2023-05-14T06:11:51.130Z,65.01
2023-05-14T06:12:51.117Z,65.11
2023-05-14T06:13:51.132Z,65.11
2023-05-14T06:14:51.168Z,65.01
2023-05-14T06:15:51.131Z,65.11
2023-05-14T06:16:51.288Z,65.30
2023-05-14T06:17:51.157Z,65.11
2023-05-14T06:18:51.184Z,64.82
2023-05-14T06:19:51.112Z,65.20
2023-05-14T06:20:51.127Z,64.82
2023-05-14T06:21:51.126Z,64.63
2023-05-14T06:22:51.129Z,64.73
2023-05-14T06:23:51.127Z,64.82
2023-05-14T06:24:51.110Z,64.73
2023-05-14T06:25:51.131Z,64.73
2023-05-14T06:26:51.123Z,64.82
2023-05-14T06:27:51.125Z,64.73
2023-05-14T06:28:51.100Z,64.73
2023-05-14T06:29:51.110Z,64.82
2023-05-14T06:30:51.116Z,64.73
2023-05-14T06:31:51.190Z,65.01
2023-05-14T06:32:51.137Z,64.92
2023-05-14T06:33:51.122Z,64.82
2023-05-14T06:34:51.132Z,64.82
2023-05-14T06:35:51.111Z,64.82
2023-05-14T06:36:51.095Z,64.73
2023-05-14T06:37:51.124Z,64.73
2023-05-14T06:38:51.109Z,64.73
2023-05-14T06:39:51.119Z,64.73
2023-05-14T06:40:51.089Z,64.73
2023-05-14T06:41:51.090Z,64.73
2023-05-14T06:42:51.087Z,64.73
2023-05-14T06:43:51.111Z,64.73
2023-05-14T06:44:51.099Z,65.11
2023-05-14T06:45:51.090Z,64.73
2023-05-14T06:46:51.112Z,64.73
2023-05-14T06:47:51.123Z,64.82
2023-05-14T06:48:51.145Z,64.73
2023-05-14T06:49:51.097Z,65.20
2023-05-14T06:50:51.101Z,65.20
2023-05-14T06:51:51.116Z,64.73
2023-05-14T06:52:51.089Z,65.20
2023-05-14T06:53:51.100Z,65.30
2023-05-14T06:54:51.080Z,65.30
2023-05-14T06:55:51.094Z,64.73
2023-05-14T06:56:51.074Z,64.82
2023-05-14T06:57:51.088Z,65.30
2023-05-14T06:58:51.102Z,65.20
2023-05-14T06:59:51.086Z,65.20
2023-05-14T07:00:51.076Z,65.11
2023-05-14T07:01:51.171Z,64.86
2023-05-14T07:02:51.124Z,64.82
2023-05-14T07:03:51.171Z,64.82
2023-05-14T07:04:51.092Z,64.82
2023-05-14T07:05:51.065Z,64.92
2023-05-14T07:06:51.090Z,64.86
2023-05-14T07:07:51.072Z,64.73
2023-05-14T07:08:51.070Z,65.05
2023-05-14T07:09:51.080Z,65.14
2023-05-14T07:10:51.080Z,65.05
2023-05-14T07:11:51.068Z,64.47
2023-05-14T07:12:51.081Z,64.47
2023-05-14T07:13:51.060Z,64.56
2023-05-14T07:14:51.073Z,64.56
2023-05-14T07:15:51.089Z,64.76
2023-05-14T07:16:51.103Z,64.37
2023-05-14T07:17:51.134Z,64.37
2023-05-14T07:18:51.087Z,64.47
2023-05-14T07:19:51.063Z,64.56
2023-05-14T07:20:51.061Z,64.08
2023-05-14T07:21:51.075Z,64.08
2023-05-14T07:22:51.083Z,63.98
2023-05-14T07:23:51.063Z,64.18
2023-05-14T07:24:51.050Z,63.79
2023-05-14T07:25:51.059Z,63.79
2023-05-14T07:26:51.044Z,63.98
2023-05-14T07:27:51.071Z,63.89
2023-05-14T07:28:51.056Z,64.02
2023-05-14T07:29:51.062Z,63.82
2023-05-14T07:30:51.095Z,63.50
2023-05-14T07:31:51.217Z,63.63
2023-05-14T07:32:51.086Z,63.73
2023-05-14T07:33:51.044Z,63.73
2023-05-14T07:34:51.036Z,64.11
2023-05-14T07:35:51.041Z,63.82
2023-05-14T07:36:51.097Z,63.34
2023-05-14T07:37:51.064Z,63.44
2023-05-14T07:38:51.064Z,63.63
2023-05-14T07:39:51.050Z,63.44
2023-05-14T07:40:51.053Z,63.63
2023-05-14T07:41:51.055Z,63.54
2023-05-14T07:42:51.038Z,63.34
2023-05-14T07:43:51.045Z,63.44
2023-05-14T07:44:51.040Z,63.44
2023-05-14T07:45:51.062Z,63.15
2023-05-14T07:46:51.116Z,63.54
2023-05-14T07:47:51.187Z,63.34
2023-05-14T07:48:51.049Z,63.24
2023-05-14T07:49:51.044Z,63.15
2023-05-14T07:50:51.045Z,63.18
2023-05-14T07:51:51.052Z,62.99
2023-05-14T07:52:51.047Z,62.89
2023-05-14T07:53:51.038Z,62.79
2023-05-14T07:54:51.071Z,62.89
2023-05-14T07:55:51.055Z,62.79
2023-05-14T07:56:51.057Z,62.99
2023-05-14T07:57:51.048Z,62.99
2023-05-14T07:58:51.047Z,62.99
2023-05-14T07:59:51.056Z,63.09
2023-05-14T08:00:51.039Z,63.09
2023-05-14T08:01:51.086Z,63.18
2023-05-14T08:02:51.160Z,62.31
2023-05-14T08:03:51.086Z,63.09
2023-05-14T08:04:51.050Z,62.51
2023-05-14T08:05:51.041Z,63.09
2023-05-14T08:06:51.048Z,62.60
2023-05-14T08:07:51.058Z,62.60
2023-05-14T08:08:51.044Z,62.70
2023-05-14T08:09:51.044Z,62.70
2023-05-14T08:10:51.161Z,62.79
2023-05-14T08:11:51.054Z,62.82
2023-05-14T08:12:51.053Z,62.79
2023-05-14T08:13:51.063Z,62.60
2023-05-14T08:14:51.036Z,62.82
2023-05-14T08:15:51.043Z,62.73
2023-05-14T08:16:51.093Z,62.63
2023-05-14T08:17:51.134Z,62.54
2023-05-14T08:18:51.124Z,62.63
2023-05-14T08:19:51.048Z,62.82
2023-05-14T08:20:51.046Z,62.44
2023-05-14T08:21:51.057Z,62.82
2023-05-14T08:22:51.063Z,62.34
2023-05-14T08:23:51.040Z,62.82
2023-05-14T08:24:51.055Z,62.25
2023-05-14T08:25:51.046Z,62.34
2023-05-14T08:26:51.065Z,62.25
2023-05-14T08:27:51.056Z,61.86
2023-05-14T08:28:51.053Z,62.15
2023-05-14T08:29:51.055Z,62.15
2023-05-14T08:30:51.054Z,61.86
2023-05-14T08:31:51.061Z,62.34
2023-05-14T08:32:51.077Z,62.54
2023-05-14T08:33:51.080Z,62.34
2023-05-14T08:34:51.073Z,62.25
2023-05-14T08:35:51.081Z,62.15
2023-05-14T08:36:51.066Z,62.25
2023-05-14T08:37:51.065Z,62.44
2023-05-14T08:38:51.075Z,62.34
2023-05-14T08:39:51.054Z,62.25
2023-05-14T08:40:51.063Z,62.05
2023-05-14T08:41:51.058Z,62.15
2023-05-14T08:42:51.090Z,62.25
2023-05-14T08:43:51.065Z,62.25
2023-05-14T08:44:51.075Z,62.15
2023-05-14T08:45:51.072Z,61.86
2023-05-14T08:46:51.071Z,61.86
2023-05-14T08:47:51.401Z,61.77
2023-05-14T08:48:51.067Z,61.77
2023-05-14T08:49:51.068Z,61.96
2023-05-14T08:50:51.047Z,61.96
2023-05-14T08:51:51.051Z,61.77
2023-05-14T08:52:51.067Z,61.96
2023-05-14T08:53:51.066Z,61.77
2023-05-14T08:54:51.072Z,61.57
2023-05-14T08:55:51.062Z,61.86
2023-05-14T08:56:51.940Z,61.86
2023-05-14T08:57:51.057Z,61.86
2023-05-14T08:58:51.080Z,61.67
2023-05-14T08:59:51.051Z,61.57
2023-05-14T09:00:51.072Z,61.67
2023-05-14T09:01:51.103Z,61.86
2023-05-14T09:02:51.099Z,61.96
2023-05-14T09:03:51.106Z,61.77
2023-05-14T09:04:51.052Z,62.15
2023-05-14T09:05:51.044Z,62.15
2023-05-14T09:06:51.064Z,62.15
2023-05-14T09:07:51.062Z,61.96
2023-05-14T09:08:51.059Z,62.15
2023-05-14T09:09:51.060Z,62.44
2023-05-14T09:10:51.061Z,62.44
2023-05-14T09:11:51.078Z,62.25
2023-05-14T09:12:51.047Z,62.34
2023-05-14T09:13:51.058Z,62.15
2023-05-14T09:14:51.079Z,62.34
2023-05-14T09:15:51.077Z,62.34
2023-05-14T09:16:51.432Z,61.86
2023-05-14T09:17:51.066Z,62.05
2023-05-14T09:18:51.104Z,62.15
2023-05-14T09:19:51.058Z,62.25
2023-05-14T09:20:51.055Z,62.34
2023-05-14T09:21:51.103Z,62.25
2023-05-14T09:22:51.063Z,62.34
2023-05-14T09:23:51.065Z,62.25
2023-05-14T09:24:51.054Z,62.34
2023-05-14T09:25:51.051Z,62.25
2023-05-14T09:26:51.066Z,62.34
2023-05-14T09:27:51.058Z,62.25
2023-05-14T09:28:51.046Z,62.34
2023-05-14T09:29:51.050Z,62.92
2023-05-14T09:30:51.085Z,62.92
2023-05-14T09:31:51.082Z,63.02
2023-05-14T09:32:51.080Z,62.82
2023-05-14T09:33:51.053Z,62.82
2023-05-14T09:34:51.055Z,62.63
2023-05-14T09:35:51.052Z,62.63
2023-05-14T09:36:51.055Z,62.54
2023-05-14T09:37:51.061Z,62.54
2023-05-14T09:38:51.067Z,62.54
2023-05-14T09:39:51.069Z,62.54
2023-05-14T09:40:51.061Z,62.60
2023-05-14T09:41:51.061Z,62.51
2023-05-14T09:42:51.053Z,62.70
2023-05-14T09:43:51.050Z,62.79
2023-05-14T09:44:51.066Z,62.70
2023-05-14T09:45:51.065Z,62.70
2023-05-14T09:46:51.113Z,62.70
2023-05-14T09:47:51.160Z,62.79
2023-05-14T09:48:51.051Z,62.89
2023-05-14T09:49:51.042Z,62.89
2023-05-14T09:50:51.035Z,62.70
2023-05-14T09:51:51.065Z,62.79
2023-05-14T09:52:51.058Z,62.79
2023-05-14T09:53:51.031Z,62.70
2023-05-14T09:54:51.032Z,62.79
2023-05-14T09:55:51.026Z,62.79
2023-05-14T09:56:51.047Z,62.41
2023-05-14T09:57:51.042Z,62.79
2023-05-14T09:58:51.027Z,62.73
2023-05-14T09:59:51.038Z,62.89
2023-05-14T10:00:51.054Z,62.79
2023-05-14T10:01:51.020Z,62.70
2023-05-14T10:02:51.090Z,62.79
2023-05-14T10:03:51.126Z,62.89
2023-05-14T10:04:51.139Z,62.70
2023-05-14T10:05:51.107Z,62.82
2023-05-14T10:06:51.044Z,62.79
2023-05-14T10:07:51.015Z,62.60
2023-05-14T10:08:51.024Z,62.79
2023-05-14T10:09:51.036Z,62.89
2023-05-14T10:10:51.035Z,62.79
2023-05-14T10:11:51.020Z,62.79
2023-05-14T10:12:51.036Z,62.79
2023-05-14T10:13:51.043Z,62.79
2023-05-14T10:14:51.061Z,62.79
2023-05-14T10:15:51.016Z,62.89
2023-05-14T10:16:51.105Z,62.79
2023-05-14T10:17:51.049Z,62.89
2023-05-14T10:18:51.114Z,62.99
2023-05-14T10:19:51.010Z,62.79
2023-05-14T10:20:51.006Z,62.79
2023-05-14T10:21:51.013Z,62.89
2023-05-14T10:22:51.032Z,62.89
2023-05-14T10:23:51.008Z,62.79
2023-05-14T10:24:51.021Z,62.89
2023-05-14T10:25:51.045Z,62.89
2023-05-14T10:26:51.005Z,62.89
2023-05-14T10:27:51.007Z,62.79
2023-05-14T10:28:51.008Z,62.89
2023-05-14T10:29:50.993Z,62.79
2023-05-14T10:30:51.056Z,62.79
2023-05-14T10:31:51.067Z,62.79
2023-05-14T10:32:51.119Z,62.79
2023-05-14T10:33:51.003Z,62.60
2023-05-14T10:34:51.027Z,62.70
2023-05-14T10:35:51.008Z,62.79
2023-05-14T10:36:50.993Z,62.79
2023-05-14T10:37:51.021Z,62.79
2023-05-14T10:38:50.997Z,62.79
2023-05-14T10:39:51.001Z,62.79
2023-05-14T10:40:53.562Z,62.70
2023-05-14T10:41:51.008Z,62.70
2023-05-14T10:42:51.049Z,62.79
2023-05-14T10:43:50.987Z,62.70
2023-05-14T10:44:51.001Z,62.51
2023-05-14T10:45:50.988Z,62.79
2023-05-14T10:46:51.022Z,62.79
2023-05-14T10:47:51.042Z,62.60
2023-05-14T10:48:51.034Z,62.41
2023-05-14T10:49:50.996Z,62.70
2023-05-14T10:50:51.080Z,62.70
2023-05-14T10:51:50.991Z,62.89
2023-05-14T10:52:50.985Z,62.79
2023-05-14T10:53:50.974Z,62.70
2023-05-14T10:54:50.982Z,62.31
2023-05-14T10:55:50.977Z,62.89
2023-05-14T10:56:50.971Z,62.70
2023-05-14T10:57:50.981Z,62.70
2023-05-14T10:58:50.989Z,62.60
2023-05-14T10:59:50.976Z,62.41
2023-05-14T11:00:51.004Z,62.79
2023-05-14T11:01:51.042Z,62.60
2023-05-14T11:02:51.047Z,62.79
2023-05-14T11:03:51.042Z,62.31
2023-05-14T11:04:50.974Z,62.41
2023-05-14T11:05:50.970Z,62.89
2023-05-14T11:06:51.011Z,62.31
2023-05-14T11:07:50.989Z,62.79
2023-05-14T11:08:50.979Z,62.70
2023-05-14T11:09:50.966Z,62.41
2023-05-14T11:10:50.983Z,62.41
2023-05-14T11:11:50.965Z,62.89
2023-05-14T11:12:51.032Z,62.31
2023-05-14T11:13:50.961Z,62.41
2023-05-14T11:14:50.983Z,62.79
2023-05-14T11:15:50.969Z,62.89
2023-05-14T11:16:51.016Z,62.60
2023-05-14T11:17:50.997Z,62.31
2023-05-14T11:18:51.000Z,62.60
2023-05-14T11:19:51.327Z,62.60
2023-05-14T11:20:50.984Z,62.60
2023-05-14T11:21:50.961Z,62.70
2023-05-14T11:22:50.980Z,62.70
2023-05-14T11:23:50.971Z,62.51
2023-05-14T11:24:50.971Z,62.60
2023-05-14T11:25:51.000Z,62.51
2023-05-14T11:26:50.950Z,62.51
2023-05-14T11:27:50.966Z,62.51
2023-05-14T11:28:50.971Z,62.51
2023-05-14T11:29:50.956Z,62.60
2023-05-14T11:30:51.003Z,62.60
2023-05-14T11:31:51.037Z,62.51
2023-05-14T11:32:51.002Z,62.51
2023-05-14T11:33:50.950Z,62.60
2023-05-14T11:34:50.950Z,62.51
2023-05-14T11:35:50.961Z,62.60
2023-05-14T11:36:50.955Z,62.51
2023-05-14T11:37:50.943Z,62.60
2023-05-14T11:38:50.981Z,62.60
2023-05-14T11:39:50.955Z,62.60
2023-05-14T11:40:50.960Z,62.51
2023-05-14T11:41:50.956Z,62.51
2023-05-14T11:42:50.953Z,62.60
2023-05-14T11:43:50.955Z,62.60
2023-05-14T11:44:50.943Z,62.60
2023-05-14T11:45:50.991Z,62.51
2023-05-14T11:46:50.934Z,62.60
2023-05-14T11:47:51.027Z,62.51
2023-05-14T11:48:50.949Z,62.70
2023-05-14T11:49:50.956Z,62.51
2023-05-14T11:50:50.946Z,62.51
2023-05-14T11:51:50.930Z,62.51
2023-05-14T11:52:50.976Z,62.60
2023-05-14T11:53:50.931Z,62.60
2023-05-14T11:54:51.085Z,62.60
2023-05-14T11:55:50.936Z,62.51
2023-05-14T11:56:50.939Z,62.60
2023-05-14T11:57:50.921Z,62.60
2023-05-14T11:58:50.928Z,62.51
2023-05-14T11:59:50.926Z,62.51
2023-05-14T12:00:50.936Z,62.41
2023-05-14T12:01:50.916Z,62.31
2023-05-14T12:02:51.015Z,62.31
2023-05-14T12:03:51.125Z,62.60
2023-05-14T12:04:50.966Z,62.31
2023-05-14T12:05:50.925Z,62.31
2023-05-14T12:06:50.925Z,62.79
2023-05-14T12:07:50.913Z,62.51
2023-05-14T12:08:50.921Z,62.41
2023-05-14T12:09:50.973Z,62.79
2023-05-14T12:10:50.954Z,62.79
2023-05-14T12:11:50.905Z,62.60
2023-05-14T12:12:50.915Z,62.70
2023-05-14T12:13:50.915Z,62.41
2023-05-14T12:14:50.910Z,62.70
2023-05-14T12:15:50.920Z,62.79
2023-05-14T12:16:50.933Z,62.79
2023-05-14T12:17:50.957Z,62.70
2023-05-14T12:18:50.932Z,62.79
2023-05-14T12:19:50.916Z,62.89
2023-05-14T12:20:50.902Z,62.79
2023-05-14T12:21:50.899Z,62.89
2023-05-14T12:22:50.899Z,62.89
2023-05-14T12:23:50.903Z,62.79
2023-05-14T12:24:50.912Z,62.79
2023-05-14T12:25:50.896Z,62.89
2023-05-14T12:26:50.926Z,62.89
2023-05-14T12:27:50.906Z,62.89
2023-05-14T12:28:50.902Z,62.89
2023-05-14T12:29:50.901Z,62.89
2023-05-14T12:30:50.896Z,62.79
2023-05-14T12:31:51.040Z,62.89
2023-05-14T12:32:50.960Z,62.89
2023-05-14T12:33:50.885Z,62.31
2023-05-14T12:34:50.900Z,62.31
2023-05-14T12:35:50.902Z,62.79
2023-05-14T12:36:50.909Z,62.31
2023-05-14T12:37:50.908Z,62.22
2023-05-14T12:38:50.896Z,62.41
2023-05-14T12:39:50.894Z,62.22
2023-05-14T12:40:50.881Z,62.22
2023-05-14T12:41:50.879Z,62.22
2023-05-14T12:42:50.934Z,62.22
2023-05-14T12:43:50.899Z,62.79
2023-05-14T12:44:50.892Z,62.22
2023-05-14T12:45:50.906Z,62.70
2023-05-14T12:46:50.980Z,62.41
2023-05-14T12:47:50.943Z,62.22
2023-05-14T12:48:53.157Z,62.22
2023-05-14T12:49:50.872Z,62.22
2023-05-14T12:50:50.904Z,62.41
2023-05-14T12:51:56.763Z,62.31
2023-05-14T12:52:50.872Z,62.12